Time;durP1;ratioP1;P1;durP2;ratioP2;P2;SDS_P1;SDS_P2;PMS_P1;PMS_P2;Temp;Humidity;BMP_temperature;BMP_pressure;BME280_temperature;BME280_humidity;BME280_pressure;Samples;Min_cycle;Max_cycle;Signal;HPM_P1;HPM_P2
2023/10/11 00:01:02;;;;;;;9.65;4.82;;;17.10;99.90;;;;;;5125176;27;20280;-79
2023/10/11 00:03:35;;;;;;;9.68;4.63;;;17.00;99.90;;;;;;5126661;27;20215;-79
2023/10/11 00:06:04;;;;;;;9.25;4.63;;;17.00;99.90;;;;;;5136018;27;20203;-79
2023/10/11 00:08:39;;;;;;;10.98;4.97;;;16.80;99.90;;;;;;5129211;27;20231;-79
2023/10/11 00:11:08;;;;;;;8.57;5.18;;;16.90;99.90;;;;;;5136101;27;20229;-78
2023/10/11 00:13:35;;;;;;;8.10;4.53;;;16.90;99.90;;;;;;5127724;27;20614;-80
2023/10/11 00:16:08;;;;;;;9.18;4.93;;;17.00;99.90;;;;;;5135521;27;20253;-78
2023/10/11 00:18:36;;;;;;;9.95;4.72;;;17.00;99.90;;;;;;5129071;27;20225;-79
2023/10/11 00:21:10;;;;;;;7.85;4.57;;;17.10;99.90;;;;;;5128916;27;20666;-81
2023/10/11 00:23:38;;;;;;;11.10;5.82;;;17.00;99.90;;;;;;5128509;27;20214;-80
2023/10/11 00:26:07;;;;;;;10.95;4.90;;;16.80;99.90;;;;;;5132665;27;20241;-79
2023/10/11 00:28:37;;;;;;;8.45;5.22;;;16.70;99.90;;;;;;5126789;27;20215;-80
2023/10/11 00:31:06;;;;;;;9.45;5.05;;;16.60;99.90;;;;;;5118014;27;20235;-79
2023/10/11 00:33:33;;;;;;;10.07;4.70;;;16.40;99.90;;;;;;5129093;27;20203;-80
2023/10/11 00:36:04;;;;;;;8.63;5.15;;;16.30;99.90;;;;;;5132163;27;20201;-79
2023/10/11 00:38:42;;;;;;;10.77;4.95;;;16.40;99.90;;;;;;5123396;27;20597;-79
2023/10/11 00:41:15;;;;;;;9.00;4.75;;;16.30;99.90;;;;;;5127446;27;20204;-80
2023/10/11 00:43:46;;;;;;;10.35;5.18;;;16.30;99.90;;;;;;5135945;27;20204;-80
2023/10/11 00:46:14;;;;;;;7.65;4.70;;;16.10;99.90;;;;;;5127124;27;20299;-80
2023/10/11 00:48:51;;;;;;;12.95;4.40;;;16.50;99.90;;;;;;5130074;27;20220;-79
2023/10/11 00:51:19;;;;;;;8.45;4.90;;;16.30;99.90;;;;;;5131530;27;20224;-79
2023/10/11 00:53:47;;;;;;;12.60;4.72;;;16.20;99.90;;;;;;5130697;27;20197;-79
2023/10/11 00:56:18;;;;;;;7.70;4.38;;;16.10;99.90;;;;;;5128542;27;20654;-79
2023/10/11 00:58:45;;;;;;;11.32;5.13;;;16.10;99.90;;;;;;5128445;27;20220;-79
2023/10/11 01:01:14;;;;;;;9.02;4.60;;;16.10;99.90;;;;;;5129406;27;20566;-79
2023/10/11 01:03:41;;;;;;;9.63;4.75;;;15.90;99.90;;;;;;5130253;27;20222;-79
2023/10/11 01:06:10;;;;;;;7.68;4.35;;;15.70;99.90;;;;;;5134912;27;20200;-79
2023/10/11 01:08:39;;;;;;;7.78;4.45;;;15.60;99.90;;;;;;5130628;27;20317;-79
2023/10/11 01:11:11;;;;;;;9.73;4.75;;;15.70;99.90;;;;;;5123802;27;20197;-79
2023/10/11 01:13:41;;;;;;;12.00;4.65;;;15.80;99.90;;;;;;5123476;27;20215;-79
2023/10/11 01:16:10;;;;;;;10.80;4.43;;;15.90;99.90;;;;;;5132232;27;20200;-79
2023/10/11 01:18:37;;;;;;;11.65;4.97;;;15.80;99.90;;;;;;5132797;27;20223;-80
2023/10/11 01:21:05;;;;;;;10.40;4.95;;;15.90;99.90;;;;;;5117713;27;20208;-79
2023/10/11 01:23:34;;;;;;;8.60;4.63;;;15.80;99.90;;;;;;5135573;27;20200;-79
2023/10/11 01:26:06;;;;;;;8.70;4.53;;;15.70;99.90;;;;;;5126054;27;20227;-79
2023/10/11 01:28:34;;;;;;;9.15;4.90;;;15.80;99.90;;;;;;5125595;27;20301;-80
2023/10/11 01:31:01;;;;;;;12.27;5.35;;;15.70;99.90;;;;;;5123648;27;20200;-79
2023/10/11 01:33:28;;;;;;;11.13;5.35;;;15.60;99.90;;;;;;5130700;27;20201;-79
2023/10/11 01:35:55;;;;;;;7.85;4.72;;;15.70;99.90;;;;;;5122022;27;20256;-79
2023/10/11 01:38:24;;;;;;;9.70;5.53;;;15.70;99.90;;;;;;5129638;27;20216;-81
2023/10/11 01:40:55;;;;;;;11.25;5.18;;;15.70;99.90;;;;;;5125955;27;20221;-80
2023/10/11 01:43:21;;;;;;;8.50;4.55;;;15.70;99.90;;;;;;5133710;27;20839;-78
2023/10/11 01:45:48;;;;;;;7.82;4.75;;;15.70;99.90;;;;;;5116562;28;20205;-79
2023/10/11 01:48:17;;;;;;;9.80;4.55;;;15.60;99.90;;;;;;5130281;27;20228;-79
2023/10/11 01:50:47;;;;;;;9.48;5.25;;;15.60;99.90;;;;;;5134502;28;20234;-80
2023/10/11 01:53:14;;;;;;;11.38;5.10;;;15.70;99.90;;;;;;5135008;28;20220;-79
2023/10/11 01:55:42;;;;;;;11.02;5.70;;;15.60;99.90;;;;;;5126034;28;20204;-79
2023/10/11 01:58:12;;;;;;;11.07;4.63;;;15.90;99.90;;;;;;5131333;28;20201;-79
2023/10/11 02:00:39;;;;;;;13.20;5.63;;;15.80;99.90;;;;;;5129324;28;20200;-80
2023/10/11 02:03:12;;;;;;;13.30;5.57;;;16.20;99.90;;;;;;5133541;28;20192;-79
2023/10/11 02:05:39;;;;;;;9.88;5.30;;;16.00;99.90;;;;;;5133693;28;20658;-79
2023/10/11 02:08:06;;;;;;;9.13;5.13;;;15.90;99.90;;;;;;5129632;28;20618;-79
2023/10/11 02:10:36;;;;;;;10.77;4.90;;;15.80;99.90;;;;;;5129651;28;20290;-79
2023/10/11 02:13:06;;;;;;;11.05;4.75;;;15.70;99.90;;;;;;5126705;28;20239;-80
2023/10/11 02:15:34;;;;;;;10.07;4.70;;;15.60;99.90;;;;;;5124960;28;20232;-79
2023/10/11 02:18:07;;;;;;;9.40;4.50;;;15.80;99.90;;;;;;5123212;28;20724;-79
2023/10/11 02:20:35;;;;;;;12.25;5.30;;;15.70;99.90;;;;;;5129274;28;20243;-79
2023/10/11 02:23:02;;;;;;;10.00;4.90;;;15.80;99.90;;;;;;5134655;28;20192;-80
2023/10/11 02:25:29;;;;;;;13.75;5.05;;;15.90;99.90;;;;;;5130711;28;20228;-80
2023/10/11 02:27:58;;;;;;;10.90;4.55;;;16.10;99.90;;;;;;5128957;28;20283;-80
2023/10/11 02:30:27;;;;;;;8.57;4.50;;;16.20;99.90;;;;;;5119418;27;20228;-80
2023/10/11 02:32:58;;;;;;;8.90;4.35;;;16.30;99.90;;;;;;5130828;27;20311;-79
2023/10/11 02:35:27;;;;;;;13.02;4.43;;;16.70;99.90;;;;;;5128874;27;20721;-79
2023/10/11 02:37:55;;;;;;;11.57;4.78;;;16.60;99.90;;;;;;5128554;27;20829;-79
2023/10/11 02:40:24;;;;;;;17.05;9.10;;;16.40;99.90;;;;;;5131833;27;20200;-80
2023/10/11 02:42:52;;;;;;;7.72;4.63;;;16.30;99.90;;;;;;5130705;27;20189;-80
2023/10/11 02:45:21;;;;;;;9.45;4.68;;;16.30;99.90;;;;;;5127252;27;20613;-79
2023/10/11 02:47:57;;;;;;;10.30;4.68;;;16.10;99.90;;;;;;5120000;27;20693;-79
2023/10/11 02:50:25;;;;;;;9.18;4.85;;;16.40;99.90;;;;;;5131124;27;20234;-79
2023/10/11 02:52:58;;;;;;;9.75;4.45;;;16.80;99.90;;;;;;5134528;27;20345;-79
2023/10/11 02:55:27;;;;;;;10.25;5.10;;;16.60;99.90;;;;;;5123114;27;20208;-80
2023/10/11 02:58:05;;;;;;;7.95;4.30;;;16.40;99.90;;;;;;5129317;27;20243;-79
2023/10/11 03:00:33;;;;;;;8.43;4.35;;;16.50;99.90;;;;;;5123467;27;20239;-79
2023/10/11 03:03:01;;;;;;;11.75;4.78;;;16.60;99.90;;;;;;5126610;27;20240;-79
2023/10/11 03:05:28;;;;;;;10.63;4.38;;;16.80;99.90;;;;;;5126348;27;20201;-79
2023/10/11 03:08:13;;;;;;;14.68;4.80;;;16.90;99.90;;;;;;5134047;27;20227;-80
2023/10/11 03:10:43;;;;;;;11.10;4.30;;;16.90;99.90;;;;;;5124140;27;20212;-79
2023/10/11 03:13:18;;;;;;;10.68;4.75;;;17.30;99.90;;;;;;5125311;27;20216;-79
2023/10/11 03:15:46;;;;;;;9.57;4.43;;;17.20;99.90;;;;;;5125875;27;20212;-79
2023/10/11 03:18:14;;;;;;;10.65;4.43;;;17.80;99.90;;;;;;5133248;27;20954;-80
2023/10/11 03:20:41;;;;;;;7.70;4.28;;;17.40;99.90;;;;;;5133062;27;20235;-79
2023/10/11 03:23:11;;;;;;;8.00;4.38;;;17.30;99.90;;;;;;5127069;27;20197;-79
2023/10/11 03:25:43;;;;;;;13.10;7.60;;;17.00;99.90;;;;;;5131851;27;20206;-79
2023/10/11 03:28:14;;;;;;;10.02;5.70;;;16.90;99.90;;;;;;5129965;27;20553;-79
2023/10/11 03:30:42;;;;;;;10.10;5.03;;;16.90;99.90;;;;;;5119697;27;20304;-78
2023/10/11 03:33:09;;;;;;;9.88;4.95;;;16.90;99.90;;;;;;5128603;27;20642;-78
2023/10/11 03:35:38;;;;;;;14.45;5.57;;;17.00;99.90;;;;;;5122563;27;20212;-79
2023/10/11 03:38:16;;;;;;;8.07;4.47;;;17.10;99.90;;;;;;5134936;27;20721;-79
2023/10/11 03:40:55;;;;;;;8.32;4.50;;;17.30;99.90;;;;;;5134755;27;20245;-79
2023/10/11 03:43:23;;;;;;;12.05;4.90;;;17.80;99.90;;;;;;5130576;27;20670;-78
2023/10/11 03:45:50;;;;;;;7.57;4.85;;;17.60;99.90;;;;;;5136449;27;20201;-80
2023/10/11 03:48:17;;;;;;;9.25;5.00;;;17.30;99.90;;;;;;5135564;27;20220;-79
2023/10/11 03:50:48;;;;;;;8.05;5.07;;;17.10;99.90;;;;;;5134249;27;20200;-81
2023/10/11 03:53:16;;;;;;;7.43;4.45;;;17.00;99.90;;;;;;5135399;27;20248;-80
2023/10/11 03:55:47;;;;;;;10.57;4.38;;;16.90;99.90;;;;;;5135455;27;20195;-79
2023/10/11 03:58:32;;;;;;;10.27;4.47;;;16.90;99.90;;;;;;5126997;27;20665;-79
2023/10/11 04:01:05;;;;;;;12.45;4.50;;;16.90;99.90;;;;;;5135606;27;20253;-80
2023/10/11 04:03:33;;;;;;;9.10;4.53;;;16.80;99.90;;;;;;5134515;27;20233;-79
2023/10/11 04:06:01;;;;;;;8.13;4.28;;;17.00;99.90;;;;;;5135078;27;20200;-79
2023/10/11 04:08:28;;;;;;;8.75;4.18;;;16.90;99.90;;;;;;5132901;27;20221;-79
2023/10/11 04:10:56;;;;;;;10.32;4.47;;;16.70;99.90;;;;;;5135390;27;20203;-81
2023/10/11 04:13:26;;;;;;;12.00;4.63;;;16.60;99.90;;;;;;5134875;27;20212;-80
2023/10/11 04:15:55;;;;;;;10.75;4.57;;;16.40;99.90;;;;;;5133995;27;20192;-78
2023/10/11 04:18:33;;;;;;;9.65;4.88;;;16.30;99.90;;;;;;5135255;27;20251;-79
2023/10/11 04:21:16;;;;;;;7.55;4.30;;;16.40;99.90;;;;;;5134524;27;20200;-79
2023/10/11 04:23:45;;;;;;;9.63;4.25;;;16.70;99.90;;;;;;5135982;27;20289;-79
2023/10/11 04:26:33;;;;;;;8.18;4.47;;;16.70;99.90;;;;;;5127144;27;20228;-78
2023/10/11 04:29:06;;;;;;;9.20;4.90;;;16.70;99.90;;;;;;5134848;27;20648;-80
2023/10/11 04:31:53;;;;;;;10.80;4.22;;;16.80;99.90;;;;;;5133144;27;20598;-79
2023/10/11 04:34:23;;;;;;;11.13;4.53;;;16.80;99.90;;;;;;5128955;27;20211;-79
2023/10/11 04:36:55;;;;;;;11.32;4.88;;;17.00;99.90;;;;;;5135299;27;20650;-80
2023/10/11 04:39:28;;;;;;;10.13;4.40;;;17.10;99.90;;;;;;5134967;27;20307;-80
2023/10/11 04:41:57;;;;;;;9.15;4.43;;;16.90;99.90;;;;;;5132626;27;20221;-80
2023/10/11 04:44:30;;;;;;;10.30;4.53;;;16.80;99.90;;;;;;5128941;27;20196;-79
2023/10/11 04:46:58;;;;;;;8.85;4.32;;;16.70;99.90;;;;;;5133330;27;20240;-79
2023/10/11 04:49:25;;;;;;;10.40;4.22;;;16.70;99.90;;;;;;5132032;27;20224;-80
2023/10/11 04:51:56;;;;;;;10.85;4.53;;;16.80;99.90;;;;;;5133525;27;20222;-78
2023/10/11 04:54:35;;;;;;;11.23;4.35;;;16.70;99.90;;;;;;5134814;27;20713;-80
2023/10/11 04:57:07;;;;;;;9.63;3.97;;;16.50;99.90;;;;;;5125551;27;20200;-78
2023/10/11 04:59:37;;;;;;;11.07;4.70;;;16.60;99.90;;;;;;5130431;27;20227;-81
2023/10/11 05:02:16;;;;;;;8.85;4.55;;;16.50;99.90;;;;;;5134722;27;20188;-79
2023/10/11 05:04:44;;;;;;;12.05;4.47;;;16.40;99.90;;;;;;5134855;27;20242;-79
2023/10/11 05:07:14;;;;;;;11.82;5.55;;;16.40;99.90;;;;;;5134528;27;20196;-78
2023/10/11 05:09:41;;;;;;;11.85;6.05;;;16.40;99.90;;;;;;5132812;27;20220;-78
2023/10/11 05:12:10;;;;;;;10.40;6.32;;;16.20;99.90;;;;;;5134796;27;20744;-78
2023/10/11 05:14:40;;;;;;;11.00;5.63;;;16.20;99.90;;;;;;5133203;27;20201;-78
2023/10/11 05:20:20;;;;;;;10.68;5.18;;;16.20;99.90;;;;;;5112088;27;20204;-79
2023/10/11 05:22:52;;;;;;;11.95;5.78;;;16.10;99.90;;;;;;5127398;27;20201;-79
2023/10/11 05:28:27;;;;;;;13.93;5.53;;;16.00;99.90;;;;;;5131097;27;20280;-78
2023/10/11 05:33:58;;;;;;;12.98;5.55;;;16.00;99.90;;;;;;5110031;27;20216;-81
2023/10/11 05:36:39;;;;;;;9.75;5.45;;;16.00;99.90;;;;;;5133785;27;20200;-79
2023/10/11 05:52:42;;;;;;;12.82;4.60;;;16.80;99.90;;;;;;5131025;28;20643;-78
2023/10/11 05:55:12;;;;;;;9.20;5.07;;;16.80;99.90;;;;;;5133304;28;20578;-79
2023/10/11 05:57:39;;;;;;;11.55;4.53;;;16.90;99.90;;;;;;5133025;28;20300;-80
2023/10/11 06:00:18;;;;;;;12.82;4.57;;;16.90;99.90;;;;;;5120170;28;20251;-79
2023/10/11 06:02:47;;;;;;;7.40;3.97;;;17.30;99.90;;;;;;5129282;28;20196;-79
2023/10/11 06:05:14;;;;;;;10.25;4.15;;;17.30;99.90;;;;;;5133388;27;20211;-79
2023/10/11 06:07:41;;;;;;;12.35;4.95;;;17.30;99.90;;;;;;5137792;27;20200;-79
2023/10/11 06:10:13;;;;;;;7.70;4.25;;;17.30;99.90;;;;;;5134401;27;20520;-79
2023/10/11 06:12:40;;;;;;;8.32;4.18;;;17.20;99.90;;;;;;5137020;27;20272;-79
2023/10/11 06:15:16;;;;;;;7.25;3.88;;;17.30;99.90;;;;;;5137426;27;20189;-79
2023/10/11 06:17:48;;;;;;;9.45;4.68;;;17.40;99.90;;;;;;5124086;27;20678;-78
2023/10/11 06:20:26;;;;;;;10.13;4.40;;;17.30;99.90;;;;;;5133425;27;20223;-78
2023/10/11 06:22:53;;;;;;;9.63;4.20;;;17.20;99.90;;;;;;5134568;27;20192;-78
2023/10/11 06:25:49;;;;;;;9.68;4.65;;;17.30;99.90;;;;;;5134750;27;20196;-83
2023/10/11 06:28:13;;;;;;;9.88;4.70;;;17.30;99.90;;;;;;5129738;27;20196;-80
2023/10/11 06:30:42;;;;;;;11.57;4.50;;;17.30;99.90;;;;;;5136305;27;20188;-80
2023/10/11 06:33:12;;;;;;;8.75;4.32;;;17.20;99.90;;;;;;5136822;27;20219;-80
2023/10/11 06:35:43;;;;;;;6.57;4.18;;;17.20;99.90;;;;;;5137536;27;20575;-80
2023/10/11 06:38:12;;;;;;;8.57;4.20;;;17.20;99.90;;;;;;5136414;27;20196;-79
2023/10/11 06:40:46;;;;;;;10.18;4.47;;;17.10;99.90;;;;;;5137696;27;20730;-79
2023/10/11 06:43:13;;;;;;;10.70;4.50;;;17.10;99.90;;;;;;5130255;27;20192;-79
2023/10/11 06:45:41;;;;;;;9.32;4.30;;;17.10;99.90;;;;;;5137563;27;20224;-80
2023/10/11 06:48:09;;;;;;;7.78;4.10;;;17.20;99.90;;;;;;5122648;27;20201;-78
2023/10/11 06:50:38;;;;;;;7.18;4.07;;;17.30;99.90;;;;;;5126335;27;20244;-78
2023/10/11 06:53:07;;;;;;;9.63;4.40;;;17.40;99.90;;;;;;5134303;27;20225;-78
2023/10/11 06:55:35;;;;;;;8.88;4.25;;;17.40;99.90;;;;;;5134496;27;20222;-79
2023/10/11 06:58:08;;;;;;;12.77;4.65;;;17.50;99.90;;;;;;5123023;27;20632;-78
2023/10/11 07:00:38;;;;;;;7.22;4.03;;;17.40;99.90;;;;;;5129206;27;20197;-78
2023/10/11 07:03:09;;;;;;;7.20;4.05;;;17.50;99.90;;;;;;5126060;27;20276;-80
2023/10/11 07:05:45;;;;;;;10.52;4.80;;;17.50;99.90;;;;;;5131974;27;20637;-78
2023/10/11 07:08:17;;;;;;;10.27;4.40;;;17.60;99.90;;;;;;5131358;27;20254;-78
2023/10/11 07:10:45;;;;;;;6.63;4.20;;;17.60;99.90;;;;;;5133878;27;20210;-78
2023/10/11 07:13:14;;;;;;;10.65;4.35;;;17.60;99.90;;;;;;5128563;27;20709;-78
2023/10/11 07:15:43;;;;;;;10.18;4.43;;;17.70;99.90;;;;;;5127455;27;20241;-79
2023/10/11 07:18:12;;;;;;;10.13;4.63;;;17.70;99.90;;;;;;5127935;27;20201;-77
2023/10/11 07:20:58;;;;;;;8.40;4.32;;;17.80;99.90;;;;;;5130652;27;20200;-78
2023/10/11 07:23:35;;;;;;;10.05;4.80;;;17.70;99.90;;;;;;5126463;27;20773;-79
2023/10/11 07:26:22;;;;;;;8.43;4.75;;;17.70;99.90;;;;;;5121054;27;20246;-79
2023/10/11 07:28:50;;;;;;;10.57;4.80;;;17.70;99.90;;;;;;5132200;27;20216;-79
2023/10/11 07:31:18;;;;;;;8.52;4.85;;;17.60;99.90;;;;;;5128102;27;20199;-79
2023/10/11 07:33:49;;;;;;;9.82;4.57;;;17.80;99.90;;;;;;5124493;27;20221;-78
2023/10/11 07:36:18;;;;;;;9.60;4.35;;;17.90;99.90;;;;;;5127394;27;20196;-79
2023/10/11 07:38:54;;;;;;;8.45;4.57;;;17.90;99.90;;;;;;5121998;27;20221;-79
2023/10/11 07:41:24;;;;;;;11.10;4.07;;;18.00;99.90;;;;;;5128116;27;20199;-79
2023/10/11 07:43:52;;;;;;;6.85;4.15;;;18.00;99.90;;;;;;5126154;27;20195;-79
2023/10/11 07:46:19;;;;;;;7.88;4.57;;;18.10;99.90;;;;;;5125443;27;20647;-79
2023/10/11 07:48:46;;;;;;;9.40;4.30;;;18.20;99.90;;;;;;5125107;27;20220;-80
2023/10/11 07:51:13;;;;;;;7.63;4.38;;;18.20;99.90;;;;;;5130141;27;20203;-79
2023/10/11 07:53:40;;;;;;;6.95;4.30;;;18.20;99.90;;;;;;5132905;27;20704;-78
2023/10/11 07:56:07;;;;;;;8.52;4.07;;;18.30;99.90;;;;;;5127008;27;20245;-78
2023/10/11 07:58:34;;;;;;;8.75;4.38;;;18.50;99.90;;;;;;5124819;27;20658;-79
2023/10/11 08:01:15;;;;;;;8.68;4.68;;;18.40;99.90;;;;;;5130248;27;20200;-79
2023/10/11 08:03:44;;;;;;;10.77;4.65;;;18.30;99.90;;;;;;5122874;27;20192;-78
2023/10/11 08:06:12;;;;;;;13.13;4.97;;;18.50;99.90;;;;;;5126391;27;20223;-79
2023/10/11 08:08:39;;;;;;;14.73;5.22;;;18.60;99.90;;;;;;5128743;27;20269;-80
2023/10/11 08:11:18;;;;;;;12.30;5.15;;;18.70;99.90;;;;;;5124517;27;20579;-78
2023/10/11 08:13:46;;;;;;;8.57;4.78;;;18.70;99.90;;;;;;5123214;27;20224;-79
2023/10/11 08:16:17;;;;;;;8.80;4.80;;;18.80;99.90;;;;;;5125266;27;20223;-79
2023/10/11 08:18:45;;;;;;;6.75;4.50;;;18.80;99.90;;;;;;5126706;27;20384;-79
2023/10/11 08:21:12;;;;;;;11.55;4.93;;;18.90;99.90;;;;;;5131484;27;20207;-79
2023/10/11 08:23:42;;;;;;;14.23;5.07;;;19.10;99.90;;;;;;5122740;27;20199;-79
2023/10/11 08:26:14;;;;;;;11.98;5.18;;;19.00;99.90;;;;;;5128036;27;20201;-80
2023/10/11 08:28:47;;;;;;;9.43;4.47;;;19.00;99.90;;;;;;5121826;27;20213;-78
2023/10/11 08:31:27;;;;;;;13.75;4.90;;;19.20;99.90;;;;;;5124661;27;20232;-79
2023/10/11 08:33:54;;;;;;;15.13;4.35;;;19.20;99.90;;;;;;5129138;27;20224;-78
2023/10/11 08:36:21;;;;;;;11.98;4.90;;;19.30;99.90;;;;;;5127633;27;20455;-77
2023/10/11 08:38:48;;;;;;;11.43;4.28;;;19.30;99.90;;;;;;5129653;27;20216;-78
2023/10/11 08:41:18;;;;;;;13.55;4.78;;;19.60;99.90;;;;;;5124105;27;20585;-77
2023/10/11 08:43:49;;;;;;;11.88;4.90;;;19.60;99.90;;;;;;5128777;27;20730;-77
2023/10/11 08:46:18;;;;;;;15.35;5.15;;;19.70;99.90;;;;;;5130402;27;20241;-78
2023/10/11 08:48:49;;;;;;;10.93;5.18;;;19.80;99.90;;;;;;5125626;27;20226;-78
2023/10/11 08:51:21;;;;;;;11.45;4.80;;;19.90;99.90;;;;;;5128935;27;20658;-79
2023/10/11 08:53:49;;;;;;;8.68;4.05;;;20.00;99.90;;;;;;5124841;27;20639;-77
2023/10/11 08:56:17;;;;;;;10.00;4.00;;;20.10;99.90;;;;;;5127465;27;20310;-79
2023/10/11 08:58:47;;;;;;;9.93;4.30;;;20.10;99.90;;;;;;5126787;27;20223;-78
2023/10/11 09:01:15;;;;;;;11.82;4.65;;;20.20;99.90;;;;;;5126952;27;20282;-78
2023/10/11 09:03:44;;;;;;;9.00;4.18;;;20.20;99.90;;;;;;5130469;27;20199;-79
2023/10/11 09:06:20;;;;;;;13.25;4.28;;;20.20;99.90;;;;;;5130790;27;20264;-79
2023/10/11 09:08:47;;;;;;;12.93;4.18;;;20.20;99.90;;;;;;5126683;27;20241;-79
2023/10/11 09:11:28;;;;;;;9.40;4.10;;;20.30;99.90;;;;;;5120823;27;20223;-78
2023/10/11 09:14:10;;;;;;;9.27;3.78;;;20.40;99.90;;;;;;5130657;27;20216;-79
2023/10/11 09:16:37;;;;;;;10.20;4.13;;;20.50;99.90;;;;;;5130827;27;20193;-77
2023/10/11 09:19:10;;;;;;;6.72;3.83;;;20.60;99.90;;;;;;5132463;27;20220;-79
2023/10/11 09:21:37;;;;;;;6.80;3.47;;;20.50;99.90;;;;;;5133800;27;20200;-78
2023/10/11 09:24:21;;;;;;;10.00;3.92;;;20.60;99.90;;;;;;5127875;27;20202;-79
2023/10/11 09:27:08;;;;;;;7.35;3.88;;;20.50;99.90;;;;;;5133392;27;20619;-79
2023/10/11 09:29:38;;;;;;;6.70;4.20;;;20.50;99.90;;;;;;5134240;27;20798;-78
2023/10/11 09:32:05;;;;;;;10.65;4.80;;;20.60;99.90;;;;;;5133370;27;20207;-78
2023/10/11 09:34:34;;;;;;;9.25;4.10;;;20.60;99.90;;;;;;5130264;27;20220;-77
2023/10/11 09:37:02;;;;;;;7.57;4.07;;;20.60;99.90;;;;;;5133779;27;20204;-78
2023/10/11 09:39:29;;;;;;;9.40;4.03;;;20.70;99.90;;;;;;5133160;27;20228;-77
2023/10/11 09:42:03;;;;;;;8.27;3.97;;;20.70;99.90;;;;;;5133840;27;20196;-77
2023/10/11 09:44:37;;;;;;;10.20;4.75;;;20.80;99.90;;;;;;5134119;27;20200;-77
2023/10/11 09:47:05;;;;;;;9.25;3.92;;;20.80;99.90;;;;;;5133455;27;20212;-78
2023/10/11 09:49:41;;;;;;;11.82;4.47;;;20.70;99.90;;;;;;5133823;27;20239;-79
2023/10/11 09:52:09;;;;;;;13.63;4.82;;;20.60;99.90;;;;;;5133917;27;20809;-79
2023/10/11 09:54:38;;;;;;;11.65;3.75;;;20.70;99.90;;;;;;5130934;28;20222;-79
2023/10/11 09:57:15;;;;;;;12.63;4.85;;;20.80;99.90;;;;;;5132707;28;20742;-79
2023/10/11 09:59:49;;;;;;;9.57;4.50;;;20.70;99.90;;;;;;5132824;28;20215;-78
2023/10/11 10:02:22;;;;;;;17.05;4.75;;;20.80;99.90;;;;;;5124601;28;20207;-78
2023/10/11 10:04:58;;;;;;;11.88;4.90;;;20.70;99.90;;;;;;5133020;28;20192;-79
2023/10/11 10:07:32;;;;;;;12.60;4.20;;;20.70;99.90;;;;;;5132037;28;20219;-78
2023/10/11 10:10:00;;;;;;;7.38;3.55;;;20.70;99.90;;;;;;5132548;28;20604;-79
2023/10/11 10:12:32;;;;;;;9.80;3.75;;;20.80;99.90;;;;;;5133917;28;20689;-78
2023/10/11 10:15:07;;;;;;;9.40;4.28;;;21.00;99.90;;;;;;5133746;28;20316;-78
2023/10/11 10:17:35;;;;;;;9.45;4.28;;;21.20;99.90;;;;;;5132355;28;20646;-79
2023/10/11 10:20:33;;;;;;;8.90;4.30;;;21.50;99.90;;;;;;5133405;28;20211;-77
2023/10/11 10:23:32;;;;;;;9.52;5.07;;;21.70;99.90;;;;;;5129609;28;20201;-78
2023/10/11 10:26:39;;;;;;;11.10;4.13;;;21.90;99.90;;;;;;5131160;28;20188;-79
2023/10/11 10:29:11;;;;;;;15.77;4.82;;;22.00;99.90;;;;;;5130260;28;20609;-79
2023/10/11 10:32:07;;;;;;;11.13;4.35;;;22.00;99.90;;;;;;5134071;28;20634;-79
2023/10/11 10:34:34;;;;;;;21.58;4.88;;;22.10;99.90;;;;;;5125212;28;20221;-79
2023/10/11 10:37:06;;;;;;;11.05;4.65;;;22.20;99.90;;;;;;5132434;28;20202;-79
2023/10/11 10:39:48;;;;;;;10.23;4.85;;;22.10;99.90;;;;;;5132154;28;20220;-80
2023/10/11 10:42:17;;;;;;;12.40;4.50;;;22.30;99.90;;;;;;5123878;28;20202;-79
2023/10/11 10:44:55;;;;;;;12.93;4.75;;;22.20;99.90;;;;;;5131883;28;20201;-79
2023/10/11 10:47:22;;;;;;;13.57;5.03;;;22.30;99.90;;;;;;5132940;28;20204;-78
2023/10/11 10:49:51;;;;;;;10.07;4.35;;;22.30;99.90;;;;;;5133488;27;20220;-78
2023/10/11 10:52:17;;;;;;;10.02;4.50;;;22.40;99.90;;;;;;5136834;27;20239;-80
2023/10/11 10:55:01;;;;;;;10.82;4.53;;;22.60;99.90;;;;;;5135046;27;20720;-78
2023/10/11 10:57:31;;;;;;;11.10;4.78;;;22.60;99.90;;;;;;5131790;27;20200;-79
2023/10/11 10:59:59;;;;;;;8.93;4.32;;;22.70;99.90;;;;;;5137384;27;20224;-78
2023/10/11 11:02:26;;;;;;;10.68;4.05;;;22.80;99.90;;;;;;5138345;27;20196;-79
2023/10/11 11:04:52;;;;;;;10.98;4.35;;;22.80;99.90;;;;;;5137675;27;20269;-79
2023/10/11 11:07:23;;;;;;;9.18;4.07;;;22.80;99.90;;;;;;5136811;27;20288;-79
2023/10/11 11:09:54;;;;;;;7.57;4.40;;;22.80;99.90;;;;;;5136787;27;20219;-78
2023/10/11 11:12:28;;;;;;;7.75;4.07;;;23.00;99.90;;;;;;5136970;27;20637;-80
2023/10/11 11:14:55;;;;;;;8.10;4.18;;;23.10;99.90;;;;;;5135825;27;20212;-79
2023/10/11 11:17:26;;;;;;;9.02;3.90;;;23.10;99.90;;;;;;5136792;27;20218;-79
2023/10/11 11:20:15;;;;;;;11.10;4.57;;;23.00;99.90;;;;;;5137340;27;20212;-79
2023/10/11 11:22:45;;;;;;;10.13;3.88;;;23.00;99.90;;;;;;5136089;27;20201;-78
2023/10/11 11:25:18;;;;;;;15.63;4.45;;;23.30;99.90;;;;;;5134217;27;20248;-79
2023/10/11 11:27:46;;;;;;;13.38;4.82;;;23.40;99.90;;;;;;5137753;27;20634;-79
2023/10/11 11:30:16;;;;;;;24.48;4.80;;;23.60;99.90;;;;;;5136335;27;20212;-79
2023/10/11 11:32:45;;;;;;;9.60;4.40;;;23.70;99.90;;;;;;5137369;27;20657;-79
2023/10/11 11:35:28;;;;;;;11.10;4.57;;;23.60;99.90;;;;;;5128914;27;20251;-79
2023/10/11 11:38:02;;;;;;;13.55;4.30;;;23.60;99.90;;;;;;5137003;27;20253;-78
2023/10/11 11:40:30;;;;;;;11.73;4.88;;;23.70;99.90;;;;;;5130049;27;20677;-79
2023/10/11 11:43:00;;;;;;;16.90;4.97;;;24.00;99.90;;;;;;5135762;27;20198;-79
2023/10/11 11:45:29;;;;;;;8.65;4.30;;;24.00;99.90;;;;;;5136105;27;20668;-78
2023/10/11 11:47:57;;;;;;;16.10;5.53;;;23.90;99.90;;;;;;5133780;27;20581;-79
2023/10/11 11:50:23;;;;;;;11.52;4.22;;;24.00;99.90;;;;;;5134915;27;20196;-78
2023/10/11 11:52:50;;;;;;;9.13;4.30;;;24.10;99.90;;;;;;5136044;27;20196;-79
2023/10/11 11:55:20;;;;;;;10.85;4.18;;;24.20;99.90;;;;;;5133464;27;20236;-79
2023/10/11 11:57:48;;;;;;;15.30;4.50;;;24.10;99.90;;;;;;5136361;27;20220;-79
2023/10/11 12:00:38;;;;;;;17.17;4.82;;;24.10;99.90;;;;;;5135359;27;20220;-79
2023/10/11 12:03:08;;;;;;;14.07;4.60;;;24.10;99.90;;;;;;5135296;27;20189;-79
2023/10/11 12:05:40;;;;;;;16.58;4.72;;;24.20;99.90;;;;;;5136570;27;20658;-79
2023/10/11 12:08:08;;;;;;;17.17;5.53;;;24.20;99.90;;;;;;5137282;27;20264;-79
2023/10/11 12:10:35;;;;;;;13.93;4.65;;;24.40;99.90;;;;;;5135368;27;20646;-78
2023/10/11 12:13:09;;;;;;;32.65;5.50;;;24.40;99.90;;;;;;5135830;27;20202;-79
2023/10/11 12:15:36;;;;;;;10.77;4.05;;;24.50;99.90;;;;;;5135037;27;20307;-80
2023/10/11 12:18:05;;;;;;;9.27;3.90;;;24.40;99.90;;;;;;5135806;27;20192;-78
2023/10/11 12:20:37;;;;;;;14.50;4.45;;;24.50;99.90;;;;;;5128584;27;20208;-80
2023/10/11 12:23:08;;;;;;;12.60;4.05;;;24.50;99.90;;;;;;5134985;27;20188;-80
2023/10/11 12:25:39;;;;;;;18.38;4.03;;;24.30;99.90;;;;;;5128360;27;20215;-78
2023/10/11 12:28:08;;;;;;;17.60;4.85;;;24.50;99.90;;;;;;5132885;27;20208;-79
2023/10/11 12:30:36;;;;;;;12.15;4.78;;;24.60;99.90;;;;;;5129084;27;20196;-79
2023/10/11 12:33:06;;;;;;;14.65;4.22;;;24.40;99.90;;;;;;5126292;27;20201;-80
2023/10/11 12:35:39;;;;;;;14.13;4.28;;;24.60;99.90;;;;;;5134785;27;20212;-80
2023/10/11 12:38:06;;;;;;;18.48;4.80;;;24.90;99.90;;;;;;5134127;27;20206;-78
2023/10/11 12:40:34;;;;;;;21.42;4.22;;;24.60;99.90;;;;;;5137134;27;20570;-79
2023/10/11 12:43:03;;;;;;;10.88;3.95;;;24.40;99.90;;;;;;5135331;27;20200;-79
2023/10/11 12:45:30;;;;;;;12.10;4.10;;;24.10;99.90;;;;;;5134790;27;20207;-79
2023/10/11 12:47:57;;;;;;;20.52;5.35;;;24.10;99.90;;;;;;5135386;27;20340;-79
2023/10/11 12:50:24;;;;;;;12.40;4.85;;;24.10;99.90;;;;;;5132321;27;20204;-78
2023/10/11 12:52:53;;;;;;;10.68;3.95;;;24.10;99.90;;;;;;5135331;27;20204;-78
2023/10/11 12:55:20;;;;;;;13.63;4.65;;;24.10;99.90;;;;;;5134871;27;20216;-79
2023/10/11 12:57:48;;;;;;;9.43;3.85;;;24.10;99.90;;;;;;5130176;27;20196;-79
2023/10/11 13:00:31;;;;;;;13.00;4.05;;;24.10;99.90;;;;;;5131127;27;20243;-79
2023/10/11 13:03:01;;;;;;;16.20;4.93;;;23.70;99.90;;;;;;5130941;27;20225;-79
2023/10/11 13:05:30;;;;;;;19.27;5.15;;;23.60;99.90;;;;;;5124659;27;20250;-78
2023/10/11 13:07:58;;;;;;;12.00;3.67;;;23.70;99.90;;;;;;5132750;27;20200;-78
2023/10/11 13:10:25;;;;;;;8.93;3.92;;;23.80;99.90;;;;;;5135019;27;20203;-78
2023/10/11 13:12:53;;;;;;;10.93;4.20;;;23.60;99.90;;;;;;5125742;27;20201;-78
2023/10/11 13:15:22;;;;;;;8.63;4.15;;;23.60;99.90;;;;;;5127474;27;20251;-78
2023/10/11 13:17:49;;;;;;;8.55;3.63;;;23.70;99.90;;;;;;5134771;27;20192;-79
2023/10/11 13:20:19;;;;;;;12.50;4.32;;;23.50;99.90;;;;;;5135551;27;20664;-79
2023/10/11 13:22:46;;;;;;;6.97;4.20;;;23.30;99.90;;;;;;5134726;27;20221;-79